Meteo Giornale » Osservazioni meteo Arabia Saudita » Al Ahsa
ore: 23:00 - Osservazioni Meteo Al Ahsa
Lat. 25° 18' N Lon. 49° 29' E Alt. 179 metri s.l.m.
33 °C
Sereno
Temp. 24 Ore
32 °C
45 °C
Nord
14.8 Km/h
Dew point 8 °C
Umidità 21 %
Visibilità 10 Km
Il sole sorge alle ore 05:22
Il sole tramonta alle ore 18:01
| Data e Ora | Cielo e Fenomeni | T °C | DP °C | Um. % | Pres. hPa | Vis. km | Vento km/h | |
|---|---|---|---|---|---|---|---|---|
| Oggi h: 23:00 | Sereno | 33 | 8 | 21 | 1005 | 10 | N 14.8 | |
| Oggi h: 22:00 | Sereno | 34 | 8 | 20 | 1005 | 10 | N 13 | |
| Oggi h: 21:00 | Sereno | 35 | 10 | 21 | 1005 | 10 | N 13 | |
| Oggi h: 20:00 | Sereno | 36 | 10 | 20 | 1005 | 10 | N 20.3 | |
| Oggi h: 19:00 | Sereno | 38 | 6 | 14 | 1004 | 10 | N/NE 20.3 | |
| Oggi h: 18:00 | Sereno | 40 | 7 | 13 | 1003 | 8 | N/NE 33.3 | |
| Oggi h: 17:00 | Sereno | 41 | 10 | 15 | 1003 | 8 | N/NE 37 | |
| Oggi h: 16:00 | Sereno | 43 | 12 | 16 | 1003 | 8 | N/NE 31.5 | |
| Oggi h: 15:00 | Sereno | 44 | 11 | 14 | 1003 | 8 | N/NE 33.3 | |
| Oggi h: 14:00 | Sereno | 45 | 10 | 12 | 1003 | 8 | N/NE 27.8 | |
| Oggi h: 13:00 | Sereno | 44 | 11 | 14 | 1003 | 10 | N/NE 29.6 | |
| Oggi h: 12:00 | Sereno | 44 | 11 | 14 | 1004 | 10 | N/NE 29.6 | |
| Oggi h: 11:00 | Sereno | 42 | 14 | 19 | 1004 | 10 | N 33.3 | |
| Oggi h: 10:00 | Sereno | 41 | 13 | 19 | 1004 | 10 | N 33.3 | |
| Oggi h: 09:00 | Sereno | 39 | 15 | 24 | 1004 | 10 | N 37 | |
| Oggi h: 08:00 | Sereno | 36 | 15 | 28 | 1004 | 10 | N 27.8 | |
| Oggi h: 07:00 | Sereno | 34 | 13 | 28 | 1004 | 10 | N 18.5 | |
| Oggi h: 06:00 | Sereno | 32 | 11 | 27 | 1004 | 10 | N/NO 14.8 | |
| Oggi h: 05:00 | Sereno | 32 | 8 | 22 | 1003 | 10 | N 18.5 | |
| Oggi h: 04:00 | Sereno | 33 | 6 | 18 | 1003 | 10 | N 18.5 | |
| Oggi h: 03:00 | Sereno | 34 | 4 | 15 | 1003 | 10 | N/NO 18.5 | |
| Oggi h: 02:00 | Sereno | 34 | 5 | 16 | 1003 | 10 | N/NO 14.8 | |
| Oggi h: 01:00 | Sereno | 34 | 6 | 17 | 1003 | 10 | N/NO 13 | |
| Oggi h: 00:00 | Sereno | 35 | 6 | 16 | 1003 | 10 | N/NO 16.7 | |



